sensor_id;sensor_type;location;lat;lon;timestamp;pressure;altitude;pressure_sealevel;temperature;humidity
76108;BME280;64834;52.516;10.528;2023-12-04T00:00:24;101255.69;;;-2.64;100.00
76108;BME280;64834;52.516;10.528;2023-12-04T00:02:49;101259.16;;;-2.71;100.00
76108;BME280;64834;52.516;10.528;2023-12-04T00:05:14;101256.25;;;-2.66;100.00
76108;BME280;64834;52.516;10.528;2023-12-04T00:07:40;101253.31;;;-2.62;100.00
76108;BME280;64834;52.516;10.528;2023-12-04T00:10:05;101247.44;;;-2.61;100.00
76108;BME280;64834;52.516;10.528;2023-12-04T00:12:31;101249.09;;;-2.62;100.00
76108;BME280;64834;52.516;10.528;2023-12-04T00:14:56;101246.16;;;-2.65;100.00
76108;BME280;64834;52.516;10.528;2023-12-04T00:17:22;101244.00;;;-2.69;100.00
76108;BME280;64834;52.516;10.528;2023-12-04T00:19:47;101232.84;;;-2.69;100.00
76108;BME280;64834;52.516;10.528;2023-12-04T00:22:12;101230.28;;;-2.77;100.00
76108;BME280;64834;52.516;10.528;2023-12-04T00:24:38;101228.09;;;-2.74;100.00
76108;BME280;64834;52.516;10.528;2023-12-04T00:27:03;101229.06;;;-2.87;100.00
76108;BME280;64834;52.516;10.528;2023-12-04T00:29:28;101226.63;;;-2.79;100.00
76108;BME280;64834;52.516;10.528;2023-12-04T00:31:54;101220.97;;;-2.83;100.00
76108;BME280;64834;52.516;10.528;2023-12-04T00:34:19;101219.16;;;-2.84;100.00
76108;BME280;64834;52.516;10.528;2023-12-04T00:36:44;101214.44;;;-2.88;100.00
76108;BME280;64834;52.516;10.528;2023-12-04T00:39:10;101208.56;;;-2.87;100.00
76108;BME280;64834;52.516;10.528;2023-12-04T00:41:35;101206.19;;;-2.86;100.00
76108;BME280;64834;52.516;10.528;2023-12-04T00:44:00;101207.13;;;-2.92;100.00
76108;BME280;64834;52.516;10.528;2023-12-04T00:46:26;101206.00;;;-2.87;100.00
76108;BME280;64834;52.516;10.528;2023-12-04T00:48:51;101202.53;;;-2.88;100.00
76108;BME280;64834;52.516;10.528;2023-12-04T00:51:16;101210.41;;;-2.86;100.00
76108;BME280;64834;52.516;10.528;2023-12-04T00:53:42;101209.13;;;-2.97;100.00
76108;BME280;64834;52.516;10.528;2023-12-04T00:56:07;101202.91;;;-2.92;100.00
76108;BME280;64834;52.516;10.528;2023-12-04T00:58:33;101206.56;;;-2.90;100.00
76108;BME280;64834;52.516;10.528;2023-12-04T01:00:58;101197.06;;;-2.91;100.00
76108;BME280;64834;52.516;10.528;2023-12-04T01:03:24;101190.47;;;-2.89;100.00
76108;BME280;64834;52.516;10.528;2023-12-04T01:05:51;101197.97;;;-2.90;100.00
76108;BME280;64834;52.516;10.528;2023-12-04T01:08:17;101198.50;;;-2.86;100.00
76108;BME280;64834;52.516;10.528;2023-12-04T01:10:42;101195.75;;;-2.80;100.00
76108;BME280;64834;52.516;10.528;2023-12-04T01:13:08;101196.47;;;-2.81;100.00
76108;BME280;64834;52.516;10.528;2023-12-04T01:15:36;101188.63;;;-2.83;100.00
76108;BME280;64834;52.516;10.528;2023-12-04T01:18:02;101178.19;;;-2.84;100.00
76108;BME280;64834;52.516;10.528;2023-12-04T01:20:27;101175.66;;;-2.91;100.00
76108;BME280;64834;52.516;10.528;2023-12-04T01:22:52;101178.03;;;-2.86;100.00
76108;BME280;64834;52.516;10.528;2023-12-04T01:25:18;101169.75;;;-2.83;100.00
76108;BME280;64834;52.516;10.528;2023-12-04T01:27:44;101170.91;;;-2.88;100.00
76108;BME280;64834;52.516;10.528;2023-12-04T01:30:09;101158.28;;;-2.87;100.00
76108;BME280;64834;52.516;10.528;2023-12-04T01:32:35;101154.97;;;-2.86;100.00
76108;BME280;64834;52.516;10.528;2023-12-04T01:35:01;101144.94;;;-2.91;100.00
76108;BME280;64834;52.516;10.528;2023-12-04T01:37:27;101144.72;;;-2.86;100.00
76108;BME280;64834;52.516;10.528;2023-12-04T01:39:52;101145.09;;;-2.83;100.00
76108;BME280;64834;52.516;10.528;2023-12-04T01:42:18;101139.28;;;-2.89;100.00
76108;BME280;64834;52.516;10.528;2023-12-04T01:44:43;101139.97;;;-2.83;100.00
76108;BME280;64834;52.516;10.528;2023-12-04T01:47:09;101131.75;;;-2.87;100.00
76108;BME280;64834;52.516;10.528;2023-12-04T01:49:35;101129.03;;;-2.89;100.00
76108;BME280;64834;52.516;10.528;2023-12-04T01:52:01;101135.75;;;-2.82;100.00
76108;BME280;64834;52.516;10.528;2023-12-04T01:54:26;101128.47;;;-2.86;100.00
76108;BME280;64834;52.516;10.528;2023-12-04T01:56:51;101134.50;;;-2.86;100.00
76108;BME280;64834;52.516;10.528;2023-12-04T01:59:17;101138.31;;;-2.89;100.00
76108;BME280;64834;52.516;10.528;2023-12-04T02:01:42;101134.16;;;-2.89;100.00
76108;BME280;64834;52.516;10.528;2023-12-04T02:04:09;101128.81;;;-2.90;100.00
76108;BME280;64834;52.516;10.528;2023-12-04T02:06:34;101120.78;;;-2.86;100.00
76108;BME280;64834;52.516;10.528;2023-12-04T02:08:59;101117.84;;;-2.89;100.00
76108;BME280;64834;52.516;10.528;2023-12-04T02:11:25;101123.34;;;-2.86;100.00
76108;BME280;64834;52.516;10.528;2023-12-04T02:13:50;101125.34;;;-2.91;100.00
76108;BME280;64834;52.516;10.528;2023-12-04T02:16:16;101116.44;;;-2.94;100.00
76108;BME280;64834;52.516;10.528;2023-12-04T02:18:44;101116.59;;;-2.93;100.00
76108;BME280;64834;52.516;10.528;2023-12-04T02:21:09;101110.56;;;-2.93;100.00
76108;BME280;64834;52.516;10.528;2023-12-04T02:23:34;101108.75;;;-2.94;100.00
76108;BME280;64834;52.516;10.528;2023-12-04T02:26:04;101105.03;;;-2.89;100.00
76108;BME280;64834;52.516;10.528;2023-12-04T02:28:33;101107.06;;;-2.87;100.00
76108;BME280;64834;52.516;10.528;2023-12-04T02:30:59;101106.13;;;-2.80;100.00
76108;BME280;64834;52.516;10.528;2023-12-04T02:33:26;101092.22;;;-2.82;100.00
76108;BME280;64834;52.516;10.528;2023-12-04T02:35:52;101093.50;;;-2.86;100.00
76108;BME280;64834;52.516;10.528;2023-12-04T02:38:18;101083.66;;;-2.83;100.00
76108;BME280;64834;52.516;10.528;2023-12-04T02:40:44;101081.09;;;-2.83;100.00
76108;BME280;64834;52.516;10.528;2023-12-04T02:43:09;101078.91;;;-2.87;100.00
76108;BME280;64834;52.516;10.528;2023-12-04T02:45:35;101071.22;;;-2.87;100.00
76108;BME280;64834;52.516;10.528;2023-12-04T02:48:00;101067.16;;;-2.85;100.00
76108;BME280;64834;52.516;10.528;2023-12-04T02:50:25;101070.84;;;-2.83;100.00
76108;BME280;64834;52.516;10.528;2023-12-04T02:52:50;101071.00;;;-2.81;100.00
76108;BME280;64834;52.516;10.528;2023-12-04T02:55:16;101067.91;;;-2.86;100.00
76108;BME280;64834;52.516;10.528;2023-12-04T02:57:41;101061.84;;;-2.79;100.00
76108;BME280;64834;52.516;10.528;2023-12-04T03:00:07;101061.47;;;-2.75;100.00
76108;BME280;64834;52.516;10.528;2023-12-04T03:02:32;101067.34;;;-2.83;100.00
76108;BME280;64834;52.516;10.528;2023-12-04T03:04:58;101057.28;;;-2.82;100.00
76108;BME280;64834;52.516;10.528;2023-12-04T03:07:23;101046.63;;;-2.78;100.00
76108;BME280;64834;52.516;10.528;2023-12-04T03:09:49;101052.34;;;-2.80;100.00
76108;BME280;64834;52.516;10.528;2023-12-04T03:12:15;101047.59;;;-2.84;100.00
76108;BME280;64834;52.516;10.528;2023-12-04T03:14:40;101046.31;;;-2.81;100.00
76108;BME280;64834;52.516;10.528;2023-12-04T03:17:06;101043.16;;;-2.78;100.00
76108;BME280;64834;52.516;10.528;2023-12-04T03:19:31;101036.38;;;-2.78;100.00
76108;BME280;64834;52.516;10.528;2023-12-04T03:21:56;101041.13;;;-2.74;100.00
76108;BME280;64834;52.516;10.528;2023-12-04T03:24:22;101035.44;;;-2.71;100.00
76108;BME280;64834;52.516;10.528;2023-12-04T03:26:47;101037.66;;;-2.74;100.00
76108;BME280;64834;52.516;10.528;2023-12-04T03:29:12;101038.34;;;-2.68;100.00
76108;BME280;64834;52.516;10.528;2023-12-04T03:31:38;101034.47;;;-2.64;100.00
76108;BME280;64834;52.516;10.528;2023-12-04T03:34:03;101021.50;;;-2.66;100.00
76108;BME280;64834;52.516;10.528;2023-12-04T03:36:29;101025.72;;;-2.66;100.00
76108;BME280;64834;52.516;10.528;2023-12-04T03:38:54;101018.63;;;-2.69;100.00
76108;BME280;64834;52.516;10.528;2023-12-04T03:41:19;101014.91;;;-2.64;100.00
76108;BME280;64834;52.516;10.528;2023-12-04T03:43:45;101011.84;;;-2.68;100.00
76108;BME280;64834;52.516;10.528;2023-12-04T03:46:10;100994.44;;;-2.64;100.00
76108;BME280;64834;52.516;10.528;2023-12-04T03:48:35;100998.81;;;-2.63;100.00
76108;BME280;64834;52.516;10.528;2023-12-04T03:51:00;100992.53;;;-2.58;100.00
76108;BME280;64834;52.516;10.528;2023-12-04T03:53:26;100989.25;;;-2.57;100.00
76108;BME280;64834;52.516;10.528;2023-12-04T03:55:52;100992.34;;;-2.59;100.00
76108;BME280;64834;52.516;10.528;2023-12-04T03:58:17;100980.69;;;-2.64;100.00
76108;BME280;64834;52.516;10.528;2023-12-04T04:00:43;100988.66;;;-2.54;100.00
76108;BME280;64834;52.516;10.528;2023-12-04T04:03:09;100986.69;;;-2.57;100.00
76108;BME280;64834;52.516;10.528;2023-12-04T04:05:34;100987.41;;;-2.58;100.00
76108;BME280;64834;52.516;10.528;2023-12-04T04:08:00;100980.66;;;-2.57;100.00
76108;BME280;64834;52.516;10.528;2023-12-04T04:10:25;100980.47;;;-2.59;100.00
76108;BME280;64834;52.516;10.528;2023-12-04T04:12:50;100972.38;;;-2.55;100.00
76108;BME280;64834;52.516;10.528;2023-12-04T04:15:16;100971.78;;;-2.52;100.00
76108;BME280;64834;52.516;10.528;2023-12-04T04:17:41;100965.38;;;-2.49;100.00
76108;BME280;64834;52.516;10.528;2023-12-04T04:20:07;100963.56;;;-2.50;100.00
76108;BME280;64834;52.516;10.528;2023-12-04T04:22:32;100955.72;;;-2.51;100.00
76108;BME280;64834;52.516;10.528;2023-12-04T04:25:03;100950.31;;;-2.46;100.00
76108;BME280;64834;52.516;10.528;2023-12-04T04:27:28;100942.63;;;-2.46;100.00
76108;BME280;64834;52.516;10.528;2023-12-04T04:29:54;100937.72;;;-2.44;100.00
76108;BME280;64834;52.516;10.528;2023-12-04T04:32:19;100942.25;;;-2.41;100.00
76108;BME280;64834;52.516;10.528;2023-12-04T04:34:44;100937.88;;;-2.42;100.00
76108;BME280;64834;52.516;10.528;2023-12-04T04:37:10;100938.19;;;-2.39;100.00
76108;BME280;64834;52.516;10.528;2023-12-04T04:39:35;100927.22;;;-2.38;100.00
76108;BME280;64834;52.516;10.528;2023-12-04T04:42:00;100922.41;;;-2.35;100.00
76108;BME280;64834;52.516;10.528;2023-12-04T04:44:26;100908.94;;;-2.41;100.00
76108;BME280;64834;52.516;10.528;2023-12-04T04:46:51;100920.25;;;-2.39;100.00
76108;BME280;64834;52.516;10.528;2023-12-04T04:49:16;100915.47;;;-2.36;100.00
76108;BME280;64834;52.516;10.528;2023-12-04T04:51:42;100913.00;;;-2.28;100.00
76108;BME280;64834;52.516;10.528;2023-12-04T04:54:07;100902.44;;;-2.31;100.00
76108;BME280;64834;52.516;10.528;2023-12-04T04:56:32;100909.28;;;-2.23;100.00
76108;BME280;64834;52.516;10.528;2023-12-04T04:58:57;100908.38;;;-2.23;100.00
76108;BME280;64834;52.516;10.528;2023-12-04T05:01:23;100905.06;;;-2.22;100.00
76108;BME280;64834;52.516;10.528;2023-12-04T05:03:48;100895.16;;;-2.19;100.00
76108;BME280;64834;52.516;10.528;2023-12-04T05:06:14;100894.41;;;-2.18;100.00
76108;BME280;64834;52.516;10.528;2023-12-04T05:08:39;100887.88;;;-2.23;100.00
76108;BME280;64834;52.516;10.528;2023-12-04T05:11:05;100875.72;;;-2.17;100.00
76108;BME280;64834;52.516;10.528;2023-12-04T05:13:30;100876.97;;;-2.13;100.00
76108;BME280;64834;52.516;10.528;2023-12-04T05:15:55;100867.63;;;-2.13;100.00
76108;BME280;64834;52.516;10.528;2023-12-04T05:18:21;100862.91;;;-2.17;100.00
76108;BME280;64834;52.516;10.528;2023-12-04T05:20:46;100863.22;;;-2.14;100.00
76108;BME280;64834;52.516;10.528;2023-12-04T05:23:11;100857.19;;;-2.14;100.00
76108;BME280;64834;52.516;10.528;2023-12-04T05:25:37;100857.69;;;-2.10;100.00
76108;BME280;64834;52.516;10.528;2023-12-04T05:28:03;100844.38;;;-2.14;100.00
76108;BME280;64834;52.516;10.528;2023-12-04T05:30:28;100855.38;;;-2.00;100.00
76108;BME280;64834;52.516;10.528;2023-12-04T05:32:53;100847.69;;;-2.00;100.00
76108;BME280;64834;52.516;10.528;2023-12-04T05:35:19;100837.91;;;-1.95;100.00
76108;BME280;64834;52.516;10.528;2023-12-04T05:37:45;100843.47;;;-1.99;100.00
76108;BME280;64834;52.516;10.528;2023-12-04T05:40:10;100841.06;;;-1.98;100.00
76108;BME280;64834;52.516;10.528;2023-12-04T05:42:36;100845.28;;;-1.98;100.00
76108;BME280;64834;52.516;10.528;2023-12-04T05:45:01;100838.84;;;-1.95;100.00
76108;BME280;64834;52.516;10.528;2023-12-04T05:47:27;100840.66;;;-1.94;100.00
76108;BME280;64834;52.516;10.528;2023-12-04T05:49:52;100834.78;;;-1.93;100.00
76108;BME280;64834;52.516;10.528;2023-12-04T05:52:17;100833.88;;;-1.93;100.00
76108;BME280;64834;52.516;10.528;2023-12-04T05:54:43;100838.75;;;-1.87;100.00
76108;BME280;64834;52.516;10.528;2023-12-04T05:57:08;100840.88;;;-1.83;100.00
76108;BME280;64834;52.516;10.528;2023-12-04T05:59:34;100845.34;;;-1.90;100.00
76108;BME280;64834;52.516;10.528;2023-12-04T06:01:59;100838.50;;;-1.82;100.00
76108;BME280;64834;52.516;10.528;2023-12-04T06:04:26;100844.84;;;-1.78;100.00
76108;BME280;64834;52.516;10.528;2023-12-04T06:06:51;100835.31;;;-1.79;100.00
76108;BME280;64834;52.516;10.528;2023-12-04T06:09:16;100833.41;;;-1.73;100.00
76108;BME280;64834;52.516;10.528;2023-12-04T06:11:42;100821.63;;;-1.71;100.00
76108;BME280;64834;52.516;10.528;2023-12-04T06:14:07;100820.72;;;-1.72;100.00
76108;BME280;64834;52.516;10.528;2023-12-04T06:16:33;100825.88;;;-1.72;100.00
76108;BME280;64834;52.516;10.528;2023-12-04T06:18:58;100816.84;;;-1.68;100.00
76108;BME280;64834;52.516;10.528;2023-12-04T06:21:23;100820.16;;;-1.69;100.00
76108;BME280;64834;52.516;10.528;2023-12-04T06:23:49;100806.25;;;-1.71;100.00
76108;BME280;64834;52.516;10.528;2023-12-04T06:26:14;100823.94;;;-1.66;100.00
76108;BME280;64834;52.516;10.528;2023-12-04T06:28:40;100820.81;;;-1.63;100.00
76108;BME280;64834;52.516;10.528;2023-12-04T06:31:06;100822.03;;;-1.59;100.00
76108;BME280;64834;52.516;10.528;2023-12-04T06:33:31;100822.44;;;-1.64;100.00
76108;BME280;64834;52.516;10.528;2023-12-04T06:35:57;100830.78;;;-1.57;100.00
76108;BME280;64834;52.516;10.528;2023-12-04T06:38:24;100819.34;;;-1.52;100.00
76108;BME280;64834;52.516;10.528;2023-12-04T06:40:50;100822.81;;;-1.52;100.00
76108;BME280;64834;52.516;10.528;2023-12-04T06:43:15;100813.47;;;-1.51;100.00
76108;BME280;64834;52.516;10.528;2023-12-04T06:45:44;100808.78;;;-1.55;100.00
76108;BME280;64834;52.516;10.528;2023-12-04T06:48:13;100808.06;;;-1.46;100.00
76108;BME280;64834;52.516;10.528;2023-12-04T06:50:38;100803.53;;;-1.48;100.00
76108;BME280;64834;52.516;10.528;2023-12-04T06:53:04;100810.97;;;-1.43;100.00
76108;BME280;64834;52.516;10.528;2023-12-04T06:55:29;100799.31;;;-1.48;100.00
76108;BME280;64834;52.516;10.528;2023-12-04T06:57:54;100798.56;;;-1.47;100.00
76108;BME280;64834;52.516;10.528;2023-12-04T07:00:20;100783.88;;;-1.56;100.00
76108;BME280;64834;52.516;10.528;2023-12-04T07:02:46;100789.78;;;-1.49;100.00
76108;BME280;64834;52.516;10.528;2023-12-04T07:05:11;100798.13;;;-1.43;100.00
76108;BME280;64834;52.516;10.528;2023-12-04T07:07:36;100796.00;;;-1.47;100.00
76108;BME280;64834;52.516;10.528;2023-12-04T07:10:02;100784.66;;;-1.49;100.00
76108;BME280;64834;52.516;10.528;2023-12-04T07:12:27;100792.25;;;-1.42;100.00
76108;BME280;64834;52.516;10.528;2023-12-04T07:14:52;100790.31;;;-1.36;100.00
76108;BME280;64834;52.516;10.528;2023-12-04T07:17:17;100794.97;;;-1.40;100.00
76108;BME280;64834;52.516;10.528;2023-12-04T07:19:43;100792.25;;;-1.42;100.00
76108;BME280;64834;52.516;10.528;2023-12-04T07:22:08;100795.88;;;-1.40;100.00
76108;BME280;64834;52.516;10.528;2023-12-04T07:24:33;100796.78;;;-1.39;100.00
76108;BME280;64834;52.516;10.528;2023-12-04T07:26:59;100798.63;;;-1.38;100.00
76108;BME280;64834;52.516;10.528;2023-12-04T07:29:24;100806.97;;;-1.32;100.00
76108;BME280;64834;52.516;10.528;2023-12-04T07:31:49;100806.34;;;-1.29;100.00
76108;BME280;64834;52.516;10.528;2023-12-04T07:34:15;100799.56;;;-1.29;100.00
76108;BME280;64834;52.516;10.528;2023-12-04T07:36:40;100804.09;;;-1.26;100.00
76108;BME280;64834;52.516;10.528;2023-12-04T07:39:06;100813.63;;;-1.25;100.00
76108;BME280;64834;52.516;10.528;2023-12-04T07:41:32;100817.41;;;-1.22;100.00
76108;BME280;64834;52.516;10.528;2023-12-04T07:43:57;100818.00;;;-1.24;100.00
76108;BME280;64834;52.516;10.528;2023-12-04T07:46:22;100806.88;;;-1.16;100.00
76108;BME280;64834;52.516;10.528;2023-12-04T07:48:48;100814.91;;;-1.13;100.00
76108;BME280;64834;52.516;10.528;2023-12-04T07:51:13;100819.56;;;-1.09;100.00
76108;BME280;64834;52.516;10.528;2023-12-04T07:53:38;100818.66;;;-1.10;100.00
76108;BME280;64834;52.516;10.528;2023-12-04T07:56:04;100825.63;;;-1.09;100.00
76108;BME280;64834;52.516;10.528;2023-12-04T07:58:30;100819.56;;;-1.09;100.00
76108;BME280;64834;52.516;10.528;2023-12-04T08:00:56;100817.78;;;-1.01;100.00
76108;BME280;64834;52.516;10.528;2023-12-04T08:03:21;100814.03;;;-1.05;100.00
76108;BME280;64834;52.516;10.528;2023-12-04T08:05:48;100819.03;;;-0.98;100.00
76108;BME280;64834;52.516;10.528;2023-12-04T08:08:14;100822.06;;;-0.93;100.00
76108;BME280;64834;52.516;10.528;2023-12-04T08:10:40;100817.97;;;-1.00;100.00
76108;BME280;64834;52.516;10.528;2023-12-04T08:13:05;100825.41;;;-0.94;100.00
76108;BME280;64834;52.516;10.528;2023-12-04T08:15:30;100816.47;;;-0.89;100.00
76108;BME280;64834;52.516;10.528;2023-12-04T08:17:55;100814.88;;;-0.80;99.63
76108;BME280;64834;52.516;10.528;2023-12-04T08:20:23;100806.53;;;-0.77;99.38
76108;BME280;64834;52.516;10.528;2023-12-04T08:22:48;100811.09;;;-0.75;99.56
76108;BME280;64834;52.516;10.528;2023-12-04T08:25:14;100805.34;;;-0.72;99.61
76108;BME280;64834;52.516;10.528;2023-12-04T08:27:39;100801.28;;;-0.70;99.47
76108;BME280;64834;52.516;10.528;2023-12-04T08:30:05;100798.88;;;-0.69;98.37
76108;BME280;64834;52.516;10.528;2023-12-04T08:32:30;100804.94;;;-0.68;98.15
76108;BME280;64834;52.516;10.528;2023-12-04T08:34:56;100793.56;;;-0.70;97.38
76108;BME280;64834;52.516;10.528;2023-12-04T08:37:21;100805.53;;;-0.62;97.58
76108;BME280;64834;52.516;10.528;2023-12-04T08:39:46;100810.69;;;-0.62;97.03
76108;BME280;64834;52.516;10.528;2023-12-04T08:42:12;100795.28;;;-0.62;96.74
76108;BME280;64834;52.516;10.528;2023-12-04T08:44:38;100797.22;;;-0.68;96.61
76108;BME280;64834;52.516;10.528;2023-12-04T08:47:04;100800.22;;;-0.64;96.92
76108;BME280;64834;52.516;10.528;2023-12-04T08:49:30;100801.59;;;-0.59;97.03
76108;BME280;64834;52.516;10.528;2023-12-04T08:51:55;100798.75;;;-0.62;96.75
76108;BME280;64834;52.516;10.528;2023-12-04T08:54:20;100794.38;;;-0.63;96.19
76108;BME280;64834;52.516;10.528;2023-12-04T08:56:46;100796.63;;;-0.57;96.65
76108;BME280;64834;52.516;10.528;2023-12-04T08:59:11;100801.16;;;-0.55;96.96
76108;BME280;64834;52.516;10.528;2023-12-04T09:01:38;100803.13;;;-0.52;96.48
76108;BME280;64834;52.516;10.528;2023-12-04T09:04:03;100810.25;;;-0.49;96.29
76108;BME280;64834;52.516;10.528;2023-12-04T09:06:29;100795.88;;;-0.47;95.88
76108;BME280;64834;52.516;10.528;2023-12-04T09:09:00;100803.59;;;-0.39;96.00
76108;BME280;64834;52.516;10.528;2023-12-04T09:11:25;100797.69;;;-0.46;96.03
76108;BME280;64834;52.516;10.528;2023-12-04T09:13:50;100794.97;;;-0.39;96.10
76108;BME280;64834;52.516;10.528;2023-12-04T09:16:16;100797.41;;;-0.32;96.08
76108;BME280;64834;52.516;10.528;2023-12-04T09:18:41;100801.19;;;-0.29;96.45
76108;BME280;64834;52.516;10.528;2023-12-04T09:21:06;100794.69;;;-0.34;96.02
76108;BME280;64834;52.516;10.528;2023-12-04T09:23:33;100796.34;;;-0.43;96.49
76108;BME280;64834;52.516;10.528;2023-12-04T09:25:58;100796.94;;;-0.45;96.78
76108;BME280;64834;52.516;10.528;2023-12-04T09:28:24;100798.03;;;-0.43;96.58
76108;BME280;64834;52.516;10.528;2023-12-04T09:30:49;100791.97;;;-0.44;96.87
76108;BME280;64834;52.516;10.528;2023-12-04T09:33:14;100791.50;;;-0.48;96.60
76108;BME280;64834;52.516;10.528;2023-12-04T09:35:39;100786.38;;;-0.48;96.61
76108;BME280;64834;52.516;10.528;2023-12-04T09:38:05;100790.47;;;-0.42;96.92
76108;BME280;64834;52.516;10.528;2023-12-04T09:40:30;100786.84;;;-0.35;96.55
76108;BME280;64834;52.516;10.528;2023-12-04T09:42:56;100782.44;;;-0.36;96.42
76108;BME280;64834;52.516;10.528;2023-12-04T09:45:22;100787.59;;;-0.28;96.14
76108;BME280;64834;52.516;10.528;2023-12-04T09:47:48;100786.25;;;-0.24;96.40
76108;BME280;64834;52.516;10.528;2023-12-04T09:50:16;100777.31;;;-0.28;95.67
76108;BME280;64834;52.516;10.528;2023-12-04T09:52:42;100775.94;;;-0.33;96.59
76108;BME280;64834;52.516;10.528;2023-12-04T09:55:07;100775.03;;;-0.33;96.78
76108;BME280;64834;52.516;10.528;2023-12-04T09:57:33;100765.03;;;-0.39;96.67
76108;BME280;64834;52.516;10.528;2023-12-04T10:00:00;100750.69;;;-0.37;97.26
76108;BME280;64834;52.516;10.528;2023-12-04T10:02:25;100748.13;;;-0.28;97.10
76108;BME280;64834;52.516;10.528;2023-12-04T10:04:51;100742.22;;;-0.27;97.17
76108;BME280;64834;52.516;10.528;2023-12-04T10:07:17;100736.91;;;-0.20;96.54
76108;BME280;64834;52.516;10.528;2023-12-04T10:09:42;100725.72;;;-0.20;96.59
76108;BME280;64834;52.516;10.528;2023-12-04T10:12:07;100731.47;;;-0.14;96.59
76108;BME280;64834;52.516;10.528;2023-12-04T10:14:33;100718.00;;;-0.20;96.74
76108;BME280;64834;52.516;10.528;2023-12-04T10:16:58;100721.16;;;-0.14;96.06
76108;BME280;64834;52.516;10.528;2023-12-04T10:19:25;100719.34;;;-0.07;96.88
76108;BME280;64834;52.516;10.528;2023-12-04T10:21:52;100715.72;;;0.00;96.33
76108;BME280;64834;52.516;10.528;2023-12-04T10:24:34;100711.16;;;0.06;96.53
76108;BME280;64834;52.516;10.528;2023-12-04T10:27:04;100696.16;;;0.11;96.08
76108;BME280;64834;52.516;10.528;2023-12-04T10:29:41;100688.16;;;0.08;95.63
76108;BME280;64834;52.516;10.528;2023-12-04T10:32:07;100685.28;;;0.13;94.62
76108;BME280;64834;52.516;10.528;2023-12-04T10:34:32;100687.22;;;0.16;94.44
76108;BME280;64834;52.516;10.528;2023-12-04T10:36:59;100680.41;;;0.16;94.71
76108;BME280;64834;52.516;10.528;2023-12-04T10:39:25;100669.41;;;0.09;94.77
76108;BME280;64834;52.516;10.528;2023-12-04T10:42:02;100683.63;;;0.14;95.19
76108;BME280;64834;52.516;10.528;2023-12-04T10:44:30;100683.00;;;0.16;95.69
76108;BME280;64834;52.516;10.528;2023-12-04T10:46:56;100666.66;;;0.16;95.64
76108;BME280;64834;52.516;10.528;2023-12-04T10:49:26;100668.28;;;0.24;96.36
76108;BME280;64834;52.516;10.528;2023-12-04T10:51:51;100659.19;;;0.28;96.22
76108;BME280;64834;52.516;10.528;2023-12-04T10:54:17;100642.53;;;0.24;96.42
76108;BME280;64834;52.516;10.528;2023-12-04T10:56:44;100654.81;;;0.26;95.79
76108;BME280;64834;52.516;10.528;2023-12-04T10:59:15;100655.97;;;0.39;95.47
76108;BME280;64834;52.516;10.528;2023-12-04T11:01:44;100652.84;;;0.24;94.99
76108;BME280;64834;52.516;10.528;2023-12-04T11:04:16;100654.88;;;0.09;94.59
76108;BME280;64834;52.516;10.528;2023-12-04T11:06:43;100661.97;;;0.12;95.17
76108;BME280;64834;52.516;10.528;2023-12-04T11:09:13;100664.28;;;0.00;95.40
76108;BME280;64834;52.516;10.528;2023-12-04T11:11:40;100658.97;;;0.07;95.43
76108;BME280;64834;52.516;10.528;2023-12-04T11:14:09;100657.72;;;0.12;95.96
76108;BME280;64834;52.516;10.528;2023-12-04T11:16:41;100650.75;;;0.11;94.84
76108;BME280;64834;52.516;10.528;2023-12-04T11:19:23;100644.44;;;0.08;95.17
76108;BME280;64834;52.516;10.528;2023-12-04T11:21:52;100636.91;;;-0.08;94.97
76108;BME280;64834;52.516;10.528;2023-12-04T11:24:18;100638.41;;;-0.02;95.26
76108;BME280;64834;52.516;10.528;2023-12-04T11:26:44;100642.34;;;-0.05;95.44
76108;BME280;64834;52.516;10.528;2023-12-04T11:29:11;100635.09;;;-0.09;95.26
76108;BME280;64834;52.516;10.528;2023-12-04T11:31:37;100636.00;;;-0.09;96.09
76108;BME280;64834;52.516;10.528;2023-12-04T11:34:03;100632.66;;;0.01;96.02
76108;BME280;64834;52.516;10.528;2023-12-04T11:36:28;100621.47;;;0.01;95.99
76108;BME280;64834;52.516;10.528;2023-12-04T11:38:54;100624.75;;;0.08;96.08
76108;BME280;64834;52.516;10.528;2023-12-04T11:41:22;100625.22;;;0.04;95.53
76108;BME280;64834;52.516;10.528;2023-12-04T11:43:48;100620.06;;;0.13;95.77
76108;BME280;64834;52.516;10.528;2023-12-04T11:46:19;100616.72;;;0.14;95.07
76108;BME280;64834;52.516;10.528;2023-12-04T11:48:47;100620.06;;;0.04;94.89
76108;BME280;64834;52.516;10.528;2023-12-04T11:51:15;100612.09;;;0.01;95.31
76108;BME280;64834;52.516;10.528;2023-12-04T11:54:00;100608.41;;;0.08;95.13
76108;BME280;64834;52.516;10.528;2023-12-04T11:56:25;100604.03;;;0.07;94.73
76108;BME280;64834;52.516;10.528;2023-12-04T11:58:50;100602.84;;;0.03;94.20
76108;BME280;64834;52.516;10.528;2023-12-04T12:01:17;100598.63;;;-0.05;93.94
76108;BME280;64834;52.516;10.528;2023-12-04T12:03:43;100598.91;;;-0.02;94.32
76108;BME280;64834;52.516;10.528;2023-12-04T12:06:09;100592.81;;;0.06;94.08
76108;BME280;64834;52.516;10.528;2023-12-04T12:08:34;100590.72;;;0.02;94.51
76108;BME280;64834;52.516;10.528;2023-12-04T12:11:00;100585.72;;;0.04;93.46
76108;BME280;64834;52.516;10.528;2023-12-04T12:13:25;100584.25;;;-0.03;93.38
76108;BME280;64834;52.516;10.528;2023-12-04T12:15:52;100569.25;;;0.02;93.70
76108;BME280;64834;52.516;10.528;2023-12-04T12:18:17;100558.72;;;-0.10;93.43
76108;BME280;64834;52.516;10.528;2023-12-04T12:20:43;100569.25;;;0.02;94.10
76108;BME280;64834;52.516;10.528;2023-12-04T12:23:08;100560.47;;;-0.01;93.83
76108;BME280;64834;52.516;10.528;2023-12-04T12:25:36;100557.63;;;-0.04;93.69
76108;BME280;64834;52.516;10.528;2023-12-04T12:28:02;100555.19;;;-0.02;93.79